Time;durP1;ratioP1;P1;durP2;ratioP2;P2;SDS_P1;SDS_P2;PMS_P1;PMS_P2;Temp;Humidity;BMP_temperature;BMP_pressure;BME280_temperature;BME280_humidity;BME280_pressure;Samples;Min_cycle;Max_cycle;Signal;HPM_P1;HPM_P2
2021/04/27 00:01:44;;;;;;;3.67;1.92;;;;;;;8.36;35.50;99981.19;5045402;28;20033;-84
2021/04/27 00:04:10;;;;;;;4.93;1.70;;;;;;;8.27;35.79;99983.75;5044762;28;20058;-84
2021/04/27 00:06:36;;;;;;;5.75;1.95;;;;;;;8.41;35.40;99984.22;5052892;28;20033;-83
2021/04/27 00:09:01;;;;;;;4.40;1.75;;;;;;;8.20;36.05;99974.81;5039834;28;20025;-83
2021/04/27 00:11:27;;;;;;;3.15;1.65;;;;;;;8.19;36.01;99980.22;5042735;28;20037;-84
2021/04/27 00:13:52;;;;;;;3.42;1.90;;;;;;;8.34;35.85;99975.25;5042901;28;20037;-82
2021/04/27 00:16:18;;;;;;;4.05;1.85;;;;;;;8.18;36.15;99974.13;5040591;28;20037;-83
2021/04/27 00:18:46;;;;;;;4.13;1.70;;;;;;;8.20;36.23;99966.91;5060521;28;20029;-86
2021/04/27 00:21:12;;;;;;;4.53;1.80;;;;;;;8.23;36.16;99976.31;5046618;28;20070;-85
2021/04/27 00:23:37;;;;;;;2.58;1.80;;;;;;;8.20;36.28;99968.69;5054158;28;20038;-82
2021/04/27 00:26:03;;;;;;;4.28;2.08;;;;;;;8.24;35.81;99956.88;5047794;28;20074;-82
2021/04/27 00:28:28;;;;;;;3.95;2.00;;;;;;;8.34;35.74;99960.25;5044352;28;20037;-86
2021/04/27 00:30:53;;;;;;;3.25;2.13;;;;;;;8.39;35.65;99954.53;5047640;28;20038;-89
2021/04/27 00:33:19;;;;;;;4.90;2.00;;;;;;;8.38;35.68;99955.53;5042773;28;20029;-84
2021/04/27 00:35:44;;;;;;;3.53;2.03;;;;;;;8.34;35.50;99941.00;5061220;28;20032;-84
2021/04/27 00:38:09;;;;;;;3.50;2.00;;;;;;;8.24;35.92;99944.53;5059030;28;20036;-83
2021/04/27 00:40:35;;;;;;;3.03;2.10;;;;;;;8.25;36.00;99951.47;5059083;28;20037;-85
2021/04/27 00:43:00;;;;;;;2.70;2.00;;;;;;;8.34;35.92;99944.44;5044327;28;20056;-82
2021/04/27 00:45:29;;;;;;;3.42;2.10;;;;;;;8.26;35.91;99945.22;5050773;28;20055;-83
2021/04/27 00:47:56;;;;;;;3.28;1.90;;;;;;;8.43;35.62;99940.13;5043153;28;20041;-83
2021/04/27 00:50:28;;;;;;;3.70;1.80;;;;;;;8.39;35.70;99947.47;5052622;28;20033;-85
2021/04/27 00:52:55;;;;;;;3.67;2.00;;;;;;;8.28;36.04;99945.88;5071995;28;20029;-83
2021/04/27 00:55:22;;;;;;;5.88;2.40;;;;;;;8.20;36.22;99937.94;5045790;28;20040;-83
2021/04/27 00:57:47;;;;;;;2.97;2.00;;;;;;;8.28;36.54;99938.00;5044172;28;20368;-83
2021/04/27 01:00:20;;;;;;;3.45;1.88;;;;;;;8.31;35.96;99934.22;5040742;28;20037;-84
2021/04/27 01:02:46;;;;;;;2.65;1.55;;;;;;;8.17;36.37;99929.50;5060337;28;20089;-83
2021/04/27 01:05:14;;;;;;;3.35;2.13;;;;;;;8.42;35.90;99933.19;5046588;28;20029;-86
2021/04/27 01:07:51;;;;;;;3.15;2.15;;;;;;;8.00;37.15;99910.91;5051801;28;20087;-81
2021/04/27 01:10:22;;;;;;;3.42;2.05;;;;;;;8.09;36.61;99912.63;5044824;28;20037;-83
2021/04/27 01:13:23;;;;;;;5.22;2.08;;;;;;;8.06;36.66;99902.41;5057268;28;20033;-84
2021/04/27 01:15:50;;;;;;;4.63;2.00;;;;;;;8.10;36.51;99905.56;5026525;28;20033;-83
2021/04/27 01:18:17;;;;;;;3.83;1.70;;;;;;;7.98;36.82;99904.13;5046891;28;20086;-83
2021/04/27 01:20:46;;;;;;;5.45;2.05;;;;;;;8.03;36.68;99909.78;5066228;28;20136;-84
2021/04/27 01:23:11;;;;;;;4.03;1.70;;;;;;;7.91;36.97;99897.81;5050049;28;20035;-84
2021/04/27 01:26:07;;;;;;;4.40;2.27;;;;;;;8.01;36.66;99899.41;5040283;28;20033;-85
2021/04/27 01:28:33;;;;;;;4.25;2.03;;;;;;;7.73;37.80;99898.63;5045425;28;20368;-83
2021/04/27 01:31:00;;;;;;;3.30;1.95;;;;;;;7.93;36.80;99898.50;5055197;28;20120;-83
2021/04/27 01:33:29;;;;;;;3.92;1.80;;;;;;;7.76;37.47;99884.34;5044089;28;20412;-83
2021/04/27 01:35:57;;;;;;;5.07;1.80;;;;;;;7.67;37.75;99880.78;5057389;28;20048;-82
2021/04/27 01:38:23;;;;;;;3.08;1.63;;;;;;;7.75;37.66;99893.22;5038463;28;20040;-83
2021/04/27 01:40:50;;;;;;;2.42;1.55;;;;;;;7.69;37.75;99885.91;5046800;28;20041;-82
2021/04/27 01:43:18;;;;;;;4.78;1.75;;;;;;;7.76;37.25;99890.44;5060872;28;20030;-82
2021/04/27 01:45:46;;;;;;;3.78;1.85;;;;;;;7.75;37.46;99885.34;5058007;28;20056;-85
2021/04/27 01:48:12;;;;;;;5.65;1.80;;;;;;;7.74;37.27;99891.56;5067784;28;20116;-83
2021/04/27 01:50:40;;;;;;;4.63;2.00;;;;;;;7.63;37.43;99888.19;5046043;28;20083;-83
2021/04/27 01:53:06;;;;;;;4.40;1.80;;;;;;;7.64;37.42;99886.38;5064801;28;20111;-84
2021/04/27 01:55:32;;;;;;;3.28;2.00;;;;;;;7.60;37.63;99879.75;5065054;28;20068;-83
2021/04/27 01:57:57;;;;;;;3.88;1.50;;;;;;;7.50;38.14;99882.44;5043083;28;20033;-83
2021/04/27 02:00:24;;;;;;;3.70;1.83;;;;;;;7.48;37.91;99899.34;5073507;28;20074;-81
2021/04/27 02:02:50;;;;;;;2.10;1.70;;;;;;;7.58;37.58;99898.31;5060202;28;20032;-83
2021/04/27 02:05:16;;;;;;;3.10;1.63;;;;;;;7.31;39.94;99903.59;5036875;28;20041;-83
2021/04/27 02:07:42;;;;;;;3.08;1.70;;;;;;;7.23;39.18;99915.66;5059737;28;20196;-83
2021/04/27 02:10:10;;;;;;;3.25;1.65;;;;;;;7.12;39.86;99913.22;5041723;28;20041;-82
2021/04/27 02:12:39;;;;;;;4.40;1.58;;;;;;;7.11;39.34;99905.47;5061177;28;20036;-81
2021/04/27 02:15:07;;;;;;;3.30;1.65;;;;;;;7.08;39.47;99905.75;5068745;28;20033;-82
2021/04/27 02:17:52;;;;;;;3.67;1.67;;;;;;;7.07;39.28;99912.81;5060677;28;20037;-82
2021/04/27 02:20:22;;;;;;;2.90;1.73;;;;;;;6.99;39.50;99921.44;5062737;28;20037;-82
2021/04/27 02:22:49;;;;;;;4.07;1.77;;;;;;;6.92;42.03;99909.81;5041407;28;20033;-81
2021/04/27 02:25:15;;;;;;;2.88;1.55;;;;;;;6.93;39.43;99908.84;5058858;28;20036;-81
2021/04/27 02:27:42;;;;;;;2.60;1.70;;;;;;;6.91;39.76;99907.34;5060970;28;20079;-82
2021/04/27 02:30:11;;;;;;;5.35;1.67;;;;;;;6.96;39.40;99913.84;5059121;28;20029;-81
2021/04/27 02:32:38;;;;;;;2.38;1.80;;;;;;;6.88;40.32;99916.34;5055057;28;20033;-82
2021/04/27 02:35:05;;;;;;;4.25;1.70;;;;;;;6.75;42.87;99910.59;5059573;28;20056;-83
2021/04/27 02:37:31;;;;;;;2.10;1.30;;;;;;;6.72;41.00;99910.84;5050401;28;20033;-83
2021/04/27 02:39:56;;;;;;;2.83;1.40;;;;;;;6.81;40.00;99923.13;5041266;28;20059;-82
2021/04/27 02:42:22;;;;;;;3.13;1.50;;;;;;;6.86;40.19;99922.72;5053048;28;20060;-82
2021/04/27 02:44:49;;;;;;;2.72;1.52;;;;;;;6.66;43.73;99917.50;5063988;28;20058;-82
2021/04/27 02:47:15;;;;;;;2.97;1.58;;;;;;;6.64;41.37;99924.69;5059165;28;20040;-82
2021/04/27 02:49:40;;;;;;;2.47;1.45;;;;;;;6.61;41.41;99921.53;5057793;28;20380;-83
2021/04/27 02:52:05;;;;;;;3.28;2.00;;;;;;;6.79;40.30;99927.69;5043892;28;20495;-83
2021/04/27 02:54:31;;;;;;;2.72;1.50;;;;;;;6.71;40.93;99922.34;5059928;28;20547;-83
2021/04/27 02:56:56;;;;;;;2.83;1.73;;;;;;;6.76;39.97;99920.94;5041454;28;20044;-82
2021/04/27 02:59:21;;;;;;;2.25;1.50;;;;;;;6.80;40.10;99918.84;5060381;28;20052;-83
2021/04/27 03:01:47;;;;;;;2.60;1.40;;;;;;;6.74;40.24;99922.03;5052105;28;20037;-83
2021/04/27 03:04:12;;;;;;;3.67;1.67;;;;;;;6.62;41.40;99913.50;5042543;28;20040;-83
2021/04/27 03:06:37;;;;;;;3.08;1.60;;;;;;;6.63;40.83;99909.09;5055737;28;20037;-83
2021/04/27 03:09:03;;;;;;;2.38;1.30;;;;;;;6.59;42.25;99911.16;5043058;28;20033;-82
2021/04/27 03:11:29;;;;;;;2.60;1.40;;;;;;;6.58;40.73;99909.50;5046467;28;20040;-82
2021/04/27 03:13:54;;;;;;;2.03;1.20;;;;;;;6.55;42.40;99913.25;5041406;28;20035;-82
2021/04/27 03:16:21;;;;;;;3.45;1.60;;;;;;;6.56;41.74;99908.81;5062255;28;20500;-83
2021/04/27 03:18:47;;;;;;;1.65;1.20;;;;;;;6.43;42.02;99906.47;5045440;28;20044;-83
2021/04/27 03:21:12;;;;;;;3.28;1.40;;;;;;;6.48;43.46;99909.50;5041692;28;20036;-82
2021/04/27 03:23:38;;;;;;;2.30;1.40;;;;;;;6.38;44.74;99912.16;5052604;28;20056;-82
2021/04/27 03:26:03;;;;;;;2.75;1.63;;;;;;;6.59;40.63;99906.72;5056492;28;20041;-82
2021/04/27 03:28:28;;;;;;;3.30;1.67;;;;;;;6.45;41.58;99912.41;5040419;28;20040;-83
2021/04/27 03:30:54;;;;;;;3.17;1.60;;;;;;;6.46;41.61;99906.22;5056634;28;20158;-82
2021/04/27 03:33:19;;;;;;;4.50;1.73;;;;;;;6.59;40.40;99906.72;5041773;28;20029;-82
2021/04/27 03:35:45;;;;;;;2.40;1.42;;;;;;;6.40;43.86;99914.63;5058873;28;20060;-83
2021/04/27 03:38:11;;;;;;;2.20;1.30;;;;;;;6.31;44.15;99904.97;5057647;28;20041;-82
2021/04/27 03:40:38;;;;;;;2.40;1.25;;;;;;;6.22;43.35;99908.44;5043732;28;20044;-83
2021/04/27 03:43:04;;;;;;;3.10;1.38;;;;;;;6.01;45.15;99913.84;5041661;28;20091;-83
2021/04/27 03:45:35;;;;;;;2.60;1.30;;;;;;;5.88;45.59;99917.50;5067409;28;20048;-82
2021/04/27 03:48:14;;;;;;;2.58;1.50;;;;;;;5.86;43.92;99923.84;5059676;28;20033;-83
2021/04/27 03:50:39;;;;;;;1.92;1.38;;;;;;;5.91;43.41;99913.78;5061198;28;20035;-82
2021/04/27 03:53:05;;;;;;;5.10;1.95;;;;;;;6.01;42.48;99911.22;5045221;28;20629;-83
2021/04/27 03:55:31;;;;;;;3.53;1.92;;;;;;;6.15;42.10;99903.75;5048973;28;20044;-83
2021/04/27 03:57:57;;;;;;;3.97;1.98;;;;;;;6.25;41.82;99911.63;5047441;28;20034;-83
2021/04/27 04:00:23;;;;;;;2.35;1.30;;;;;;;6.24;42.31;99906.50;5049822;28;20033;-83
2021/04/27 04:02:48;;;;;;;2.38;1.48;;;;;;;6.22;42.47;99911.91;5049814;28;20040;-83
2021/04/27 04:05:14;;;;;;;5.53;1.98;;;;;;;6.14;43.09;99902.06;5048028;28;20113;-83
2021/04/27 04:07:40;;;;;;;2.88;1.42;;;;;;;6.07;44.12;99895.72;5052482;28;20048;-83
2021/04/27 04:10:08;;;;;;;3.20;1.60;;;;;;;6.10;42.90;99899.88;5050201;28;20037;-82
2021/04/27 04:12:35;;;;;;;3.30;1.70;;;;;;;6.11;44.04;99907.59;5046799;28;20037;-83
2021/04/27 04:15:00;;;;;;;2.53;1.33;;;;;;;6.11;47.79;99906.78;5043983;28;20059;-82
2021/04/27 04:17:26;;;;;;;2.28;1.50;;;;;;;6.03;46.50;99907.47;5054852;28;20037;-83
2021/04/27 04:19:51;;;;;;;2.63;1.50;;;;;;;6.06;43.62;99904.56;5040409;28;20117;-84
2021/04/27 04:22:17;;;;;;;2.65;1.60;;;;;;;6.02;43.29;99903.19;5047074;28;20700;-83
2021/04/27 04:24:42;;;;;;;2.33;1.40;;;;;;;6.09;42.79;99904.28;5041989;28;20051;-83
2021/04/27 04:27:08;;;;;;;1.95;1.30;;;;;;;6.11;42.96;99901.53;5045886;28;20531;-83
2021/04/27 04:29:33;;;;;;;1.95;1.40;;;;;;;6.17;42.13;99908.84;5044509;28;20083;-82
2021/04/27 04:31:59;;;;;;;2.75;1.63;;;;;;;6.13;43.81;99905.69;5055387;28;20506;-83
2021/04/27 04:34:24;;;;;;;3.30;1.70;;;;;;;6.19;42.02;99906.91;5040230;28;20047;-83
2021/04/27 04:36:50;;;;;;;3.88;1.77;;;;;;;6.30;41.67;99908.56;5064178;28;20094;-82
2021/04/27 04:39:16;;;;;;;3.28;1.60;;;;;;;6.27;43.09;99911.47;5044889;28;20388;-82
2021/04/27 04:41:41;;;;;;;2.70;1.50;;;;;;;6.29;43.93;99914.78;5066935;28;20029;-82
2021/04/27 04:44:06;;;;;;;2.85;1.77;;;;;;;6.32;42.47;99914.53;5063578;28;20490;-83
2021/04/27 04:46:32;;;;;;;2.83;1.60;;;;;;;6.34;43.79;99916.03;5046441;28;20033;-83
2021/04/27 04:48:58;;;;;;;4.00;1.58;;;;;;;6.44;41.76;99912.56;5046483;28;20029;-83
2021/04/27 04:51:23;;;;;;;2.33;1.40;;;;;;;6.40;44.13;99916.44;5045297;28;20478;-82
2021/04/27 04:53:49;;;;;;;2.28;1.55;;;;;;;6.36;42.41;99915.88;5043818;28;20053;-82
2021/04/27 04:56:14;;;;;;;2.95;1.50;;;;;;;6.49;41.66;99912.97;5060720;28;20029;-82
2021/04/27 04:58:39;;;;;;;2.30;1.50;;;;;;;6.59;41.23;99916.41;5061811;28;20049;-83
2021/04/27 05:01:05;;;;;;;3.80;1.73;;;;;;;6.65;42.96;99925.50;5052347;28;20033;-83
2021/04/27 05:03:31;;;;;;;4.32;1.50;;;;;;;6.68;41.01;99922.63;5043299;28;20107;-82
2021/04/27 05:05:56;;;;;;;2.35;1.40;;;;;;;6.66;41.82;99920.13;5053253;28;20037;-82
2021/04/27 05:08:24;;;;;;;3.15;1.55;;;;;;;6.68;41.13;99920.81;5043714;28;20061;-83
2021/04/27 05:10:50;;;;;;;3.00;1.60;;;;;;;6.71;41.57;99914.44;5074884;28;20438;-82
2021/04/27 05:13:15;;;;;;;3.28;1.60;;;;;;;6.86;41.03;99922.72;5045865;28;20033;-83
2021/04/27 05:15:41;;;;;;;3.67;1.85;;;;;;;7.01;39.76;99908.97;5054237;28;20025;-82
2021/04/27 05:18:07;;;;;;;3.13;1.70;;;;;;;7.07;40.34;99914.63;5030012;28;20037;-81
2021/04/27 05:20:33;;;;;;;2.42;1.35;;;;;;;7.17;40.37;99916.22;5062585;28;20033;-82
2021/04/27 05:23:00;;;;;;;2.75;1.65;;;;;;;7.19;40.07;99924.81;5053424;28;20040;-82
2021/04/27 05:25:25;;;;;;;3.80;1.40;;;;;;;7.20;41.97;99923.03;5072149;28;20037;-82
2021/04/27 05:27:50;;;;;;;3.95;1.60;;;;;;;7.31;41.84;99928.06;5062372;28;20036;-82
2021/04/27 05:30:16;;;;;;;3.70;2.00;;;;;;;7.72;39.28;99930.34;5064048;28;20052;-83
2021/04/27 05:32:42;;;;;;;2.47;1.33;;;;;;;7.93;39.30;99927.44;5042265;28;20087;-83
2021/04/27 05:35:08;;;;;;;3.03;1.50;;;;;;;8.09;38.42;99927.63;5040045;28;20064;-82
2021/04/27 05:37:34;;;;;;;3.67;1.75;;;;;;;8.31;38.55;99926.31;5049552;28;20049;-83
2021/04/27 05:40:00;;;;;;;2.88;1.63;;;;;;;8.40;38.04;99925.44;5047317;28;20087;-82
2021/04/27 05:42:25;;;;;;;2.92;1.42;;;;;;;8.40;38.11;99927.25;5044628;28;20061;-82
2021/04/27 05:44:51;;;;;;;3.13;1.50;;;;;;;8.40;37.59;99924.63;5067494;28;20373;-83
2021/04/27 05:47:16;;;;;;;2.80;1.45;;;;;;;8.91;38.54;99925.63;5048087;28;20127;-82
2021/04/27 05:49:41;;;;;;;4.78;1.75;;;;;;;9.33;35.92;99920.41;5051793;28;20037;-82
2021/04/27 05:52:07;;;;;;;4.00;2.15;;;;;;;9.56;35.25;99931.22;5045622;28;20033;-84
2021/04/27 05:54:33;;;;;;;4.07;1.88;;;;;;;9.47;36.58;99924.25;5045730;28;20120;-83
2021/04/27 05:56:59;;;;;;;3.33;1.73;;;;;;;9.52;34.81;99936.97;5062297;28;20120;-83
2021/04/27 05:59:24;;;;;;;3.10;1.70;;;;;;;9.38;35.97;99935.75;5029382;28;20042;-82
2021/04/27 06:01:50;;;;;;;3.13;1.67;;;;;;;9.32;35.99;99928.50;5042927;28;20516;-83
2021/04/27 06:04:16;;;;;;;3.85;1.63;;;;;;;9.40;35.82;99928.50;5068815;28;20037;-83
2021/04/27 06:06:42;;;;;;;3.63;2.08;;;;;;;9.66;35.87;99927.63;5065868;28;20041;-83
2021/04/27 06:09:08;;;;;;;2.80;1.20;;;;;;;9.91;35.29;99928.50;5061108;28;20040;-83
2021/04/27 06:11:35;;;;;;;4.88;1.85;;;;;;;10.05;34.06;99924.41;5043367;28;20037;-84
2021/04/27 06:14:00;;;;;;;3.08;1.67;;;;;;;10.35;34.33;99915.88;5042457;28;20118;-83
2021/04/27 06:16:27;;;;;;;3.15;1.80;;;;;;;10.44;33.83;99915.84;5044144;28;20040;-82
2021/04/27 06:18:52;;;;;;;3.10;1.90;;;;;;;10.68;33.75;99915.00;5058317;28;20045;-83
2021/04/27 06:21:19;;;;;;;4.03;1.65;;;;;;;10.95;32.94;99922.56;5044653;28;20041;-83
2021/04/27 06:23:44;;;;;;;2.67;1.60;;;;;;;10.72;34.21;99917.16;5042546;28;20055;-84
2021/04/27 06:26:09;;;;;;;2.60;1.80;;;;;;;10.76;33.25;99920.28;5042432;28;20029;-83
2021/04/27 06:28:35;;;;;;;2.70;1.50;;;;;;;10.76;33.08;99918.47;5041722;28;20060;-83
2021/04/27 06:31:00;;;;;;;3.05;1.77;;;;;;;10.72;32.85;99913.69;5044268;28;20547;-83
2021/04/27 06:33:25;;;;;;;4.28;1.80;;;;;;;10.70;32.89;99911.22;5040151;28;20090;-83
2021/04/27 06:35:51;;;;;;;3.17;1.70;;;;;;;11.02;32.72;99904.22;5043302;28;20496;-84
2021/04/27 06:38:18;;;;;;;3.22;1.80;;;;;;;11.12;32.21;99910.13;5040453;28;20036;-82
2021/04/27 06:40:48;;;;;;;2.58;1.70;;;;;;;11.25;32.73;99906.94;5041641;28;20052;-83
2021/04/27 06:43:15;;;;;;;4.53;2.15;;;;;;;11.65;31.84;99915.69;5040727;28;20032;-83
2021/04/27 06:45:40;;;;;;;3.60;1.77;;;;;;;11.78;32.03;99915.13;5057583;28;20384;-83
2021/04/27 06:48:07;;;;;;;2.85;1.67;;;;;;;11.89;31.44;99912.94;5051326;28;20030;-84
2021/04/27 06:50:33;;;;;;;3.83;1.88;;;;;;;12.39;31.30;99909.91;5042309;28;20591;-84
2021/04/27 06:52:59;;;;;;;2.45;1.80;;;;;;;12.90;29.60;99905.63;5040786;28;20063;-83
2021/04/27 06:55:25;;;;;;;4.65;1.70;;;;;;;12.87;30.75;99913.94;5049560;28;20045;-84
2021/04/27 06:57:51;;;;;;;5.55;2.10;;;;;;;12.89;30.04;99906.59;5039065;28;20029;-83
2021/04/27 07:00:17;;;;;;;4.43;1.92;;;;;;;12.88;29.99;99912.94;5046920;28;20043;-83
2021/04/27 07:02:43;;;;;;;4.82;2.03;;;;;;;13.12;29.68;99911.03;5039174;28;20040;-84
2021/04/27 07:05:09;;;;;;;3.63;1.50;;;;;;;12.54;30.39;99903.66;5051730;28;20067;-84
2021/04/27 07:07:34;;;;;;;3.67;1.85;;;;;;;12.85;29.71;99909.84;5039756;28;20097;-83
2021/04/27 07:10:01;;;;;;;3.55;2.03;;;;;;;12.87;29.38;99915.75;5039526;28;20523;-83
2021/04/27 07:12:28;;;;;;;3.75;2.00;;;;;;;12.52;31.00;99904.84;5036564;28;20037;-83
2021/04/27 07:14:54;;;;;;;4.68;2.13;;;;;;;12.70;30.48;99915.09;5044927;28;20119;-84
2021/04/27 07:17:19;;;;;;;3.13;1.42;;;;;;;12.78;32.09;99912.38;5057404;28;20053;-85
2021/04/27 07:19:45;;;;;;;2.53;1.55;;;;;;;13.18;30.51;99915.59;5058649;28;20040;-84
2021/04/27 07:22:11;;;;;;;3.78;1.67;;;;;;;13.44;30.20;99911.66;5056359;28;20033;-85
2021/04/27 07:24:37;;;;;;;4.15;1.70;;;;;;;13.81;29.22;99916.81;5058012;28;20037;-85
2021/04/27 07:27:03;;;;;;;3.88;1.30;;;;;;;14.02;29.19;99910.69;5048870;28;20102;-85
2021/04/27 07:29:28;;;;;;;3.38;1.52;;;;;;;14.09;32.04;99909.94;5036273;28;20033;-85
2021/04/27 07:31:54;;;;;;;2.33;1.40;;;;;;;14.71;29.41;99913.78;5038595;28;20137;-85
2021/04/27 07:34:19;;;;;;;3.17;1.80;;;;;;;15.24;27.34;99914.09;5046128;28;20048;-84
2021/04/27 07:36:45;;;;;;;3.72;1.52;;;;;;;15.28;26.97;99918.81;5039965;28;20036;-85
2021/04/27 07:39:14;;;;;;;3.25;1.55;;;;;;;15.47;28.17;99916.47;5033014;28;20042;-85
2021/04/27 07:41:41;;;;;;;3.65;1.40;;;;;;;16.51;27.02;99917.91;5045444;28;20041;-85
2021/04/27 07:44:07;;;;;;;3.05;1.40;;;;;;;16.91;24.90;99913.41;5025750;28;20029;-85
2021/04/27 07:46:33;;;;;;;3.88;2.08;;;;;;;16.83;26.21;99908.28;5051346;28;20550;-85
2021/04/27 07:48:59;;;;;;;3.83;1.75;;;;;;;17.24;27.67;99909.84;5055015;28;20110;-86
2021/04/27 07:51:24;;;;;;;2.75;1.40;;;;;;;18.40;24.89;99908.81;5058774;28;20036;-83
2021/04/27 07:53:50;;;;;;;3.35;1.67;;;;;;;18.85;23.34;99905.97;5027405;28;20029;-83
2021/04/27 07:56:16;;;;;;;3.08;1.67;;;;;;;18.35;23.55;99902.47;5045128;28;20040;-83
2021/04/27 07:58:42;;;;;;;4.00;2.25;;;;;;;18.14;23.50;99904.47;5059896;28;20423;-85
2021/04/27 08:01:07;;;;;;;5.15;1.88;;;;;;;17.94;24.44;99909.13;5044348;28;20033;-85
2021/04/27 08:03:33;;;;;;;4.22;2.38;;;;;;;18.55;22.35;99897.75;5033184;28;20085;-84
2021/04/27 08:05:58;;;;;;;5.00;2.15;;;;;;;18.55;23.09;99903.13;5042151;28;20033;-84
2021/04/27 08:08:23;;;;;;;3.47;2.00;;;;;;;18.38;22.97;99897.50;5042568;28;20092;-84
2021/04/27 08:10:49;;;;;;;2.55;1.40;;;;;;;18.60;23.57;99899.78;5051058;28;20037;-84
2021/04/27 08:13:15;;;;;;;3.47;1.80;;;;;;;18.96;23.80;99890.19;5060726;28;20025;-84
2021/04/27 08:15:43;;;;;;;3.00;2.00;;;;;;;19.50;22.35;99892.03;5045126;28;20036;-83
2021/04/27 08:18:09;;;;;;;3.05;1.60;;;;;;;19.83;23.01;99888.13;5069324;28;20037;-83
2021/04/27 08:20:38;;;;;;;3.33;1.90;;;;;;;20.21;22.38;99889.59;5040846;28;20060;-85
2021/04/27 08:23:04;;;;;;;2.58;1.58;;;;;;;20.22;21.58;99880.50;5047060;28;20036;-85
2021/04/27 08:25:31;;;;;;;2.97;1.60;;;;;;;20.78;22.00;99891.78;5037961;28;20033;-84
2021/04/27 08:27:56;;;;;;;2.50;1.40;;;;;;;21.22;21.32;99889.50;5039581;28;20132;-84
2021/04/27 08:30:23;;;;;;;4.57;1.70;;;;;;;22.30;21.34;99886.16;5040588;28;20063;-84
2021/04/27 08:32:49;;;;;;;3.28;1.60;;;;;;;22.51;20.71;99890.81;5040394;28;20033;-86
2021/04/27 08:35:15;;;;;;;3.15;2.13;;;;;;;21.95;20.24;99879.91;5043321;28;20037;-84
2021/04/27 08:37:43;;;;;;;3.67;1.92;;;;;;;20.50;22.09;99879.84;5049723;28;20048;-85
2021/04/27 08:40:11;;;;;;;3.20;1.77;;;;;;;20.97;20.98;99876.34;5049208;28;20054;-85
2021/04/27 08:42:37;;;;;;;3.60;1.73;;;;;;;21.34;20.44;99878.72;5023059;28;20113;-84
2021/04/27 08:45:07;;;;;;;2.33;1.60;;;;;;;21.58;20.42;99876.81;5045271;28;20061;-84
2021/04/27 08:47:35;;;;;;;3.40;1.80;;;;;;;21.75;20.23;99883.03;5041218;28;20037;-85
2021/04/27 08:50:01;;;;;;;2.47;1.80;;;;;;;21.93;19.48;99870.41;5051586;28;20041;-84
2021/04/27 08:52:26;;;;;;;4.13;2.22;;;;;;;21.93;19.75;99876.63;5057672;28;20037;-84
2021/04/27 08:54:52;;;;;;;2.78;1.55;;;;;;;22.35;20.74;99860.09;5036318;28;20147;-85
2021/04/27 08:57:18;;;;;;;2.97;1.80;;;;;;;22.35;20.68;99862.81;5045129;28;20033;-84
2021/04/27 08:59:43;;;;;;;3.78;2.20;;;;;;;19.84;23.78;99864.78;5049326;28;20031;-86
2021/04/27 09:02:11;;;;;;;4.10;2.17;;;;;;;21.00;21.41;99862.44;5069326;28;20043;-85
2021/04/27 09:04:46;;;;;;;2.55;1.73;;;;;;;21.95;20.29;99862.91;5061156;28;20112;-86
2021/04/27 09:07:14;;;;;;;3.22;1.77;;;;;;;22.63;19.61;99856.50;5075224;28;20381;-85
2021/04/27 09:09:43;;;;;;;4.38;2.08;;;;;;;22.54;20.30;99855.28;5049546;28;20059;-86
2021/04/27 09:12:09;;;;;;;5.00;2.47;;;;;;;22.25;19.91;99860.78;5044014;28;20029;-86
2021/04/27 09:14:37;;;;;;;4.57;2.65;;;;;;;22.59;18.87;99851.84;5037454;28;20504;-86
2021/04/27 09:17:05;;;;;;;3.33;1.80;;;;;;;23.07;19.43;99843.09;5031217;28;20419;-86
2021/04/27 09:19:43;;;;;;;2.90;1.90;;;;;;;22.88;19.78;99842.56;5052470;28;20029;-86
2021/04/27 09:22:14;;;;;;;2.53;2.10;;;;;;;22.52;19.55;99838.53;5031726;28;20141;-85
2021/04/27 09:24:44;;;;;;;3.30;2.40;;;;;;;21.97;20.45;99844.66;5043104;28;20159;-87
2021/04/27 09:27:22;;;;;;;3.60;2.53;;;;;;;21.23;20.71;99844.63;5058274;28;20101;-86
2021/04/27 09:29:47;;;;;;;4.07;2.00;;;;;;;19.95;24.57;99837.19;5070639;28;20057;-87
2021/04/27 09:32:29;;;;;;;3.80;2.30;;;;;;;19.35;22.32;99831.81;5037582;28;20062;-87
2021/04/27 09:34:54;;;;;;;4.25;2.58;;;;;;;19.07;23.42;99834.00;5060687;28;20045;-86
2021/04/27 09:37:19;;;;;;;4.05;2.70;;;;;;;19.67;23.53;99819.81;5041493;28;20041;-86
2021/04/27 09:39:48;;;;;;;3.25;2.10;;;;;;;19.35;24.33;99823.75;5037758;28;20040;-86
2021/04/27 09:42:21;;;;;;;5.28;2.30;;;;;;;19.48;24.09;99820.91;5042123;28;20025;-86
2021/04/27 09:44:52;;;;;;;3.50;2.35;;;;;;;18.66;25.72;99815.88;5064159;28;20033;-87
2021/04/27 09:47:21;;;;;;;3.72;2.35;;;;;;;18.90;23.93;99816.88;5041981;28;20033;-86
2021/04/27 09:50:13;;;;;;;3.65;2.50;;;;;;;18.29;24.93;99807.81;5036272;28;20037;-84
2021/04/27 09:52:44;;;;;;;2.78;1.95;;;;;;;17.82;25.13;99805.50;5061550;28;20045;-86
2021/04/27 09:55:18;;;;;;;6.53;3.00;;;;;;;17.81;26.70;99795.03;5042306;28;20041;-85
2021/04/27 09:57:49;;;;;;;4.45;2.40;;;;;;;17.25;27.49;99796.56;5059100;28;20055;-87
2021/04/27 10:00:28;;;;;;;4.20;2.40;;;;;;;17.25;29.03;99793.06;5065858;28;20030;-86
2021/04/27 10:03:02;;;;;;;3.78;2.70;;;;;;;18.18;26.29;99785.25;5040904;28;20099;-86
2021/04/27 10:05:28;;;;;;;4.13;2.40;;;;;;;18.42;24.74;99780.09;5044241;28;20029;-85
2021/04/27 10:07:57;;;;;;;4.30;2.78;;;;;;;18.16;25.28;99768.63;5042642;28;20037;-85
2021/04/27 10:10:24;;;;;;;6.43;2.55;;;;;;;18.24;25.97;99775.53;5050169;28;20477;-85
2021/04/27 10:12:50;;;;;;;3.92;2.65;;;;;;;17.98;25.43;99772.06;5065935;28;20029;-86
2021/04/27 10:15:19;;;;;;;5.57;2.63;;;;;;;17.86;27.38;99764.97;5032684;28;20439;-86
2021/04/27 10:17:45;;;;;;;5.78;2.60;;;;;;;18.01;25.19;99768.13;5044622;28;20067;-87
2021/04/27 10:20:13;;;;;;;4.00;2.67;;;;;;;17.58;28.63;99756.28;5054029;28;20523;-87
2021/04/27 10:22:43;;;;;;;3.65;2.45;;;;;;;17.71;26.48;99759.88;5058519;28;20423;-87
2021/04/27 10:25:16;;;;;;;5.07;3.00;;;;;;;17.47;26.43;99754.31;5055292;28;20041;-86
2021/04/27 10:27:42;;;;;;;5.65;2.75;;;;;;;17.65;27.23;99752.75;5050563;28;20041;-86
2021/04/27 10:30:16;;;;;;;4.50;2.50;;;;;;;18.17;26.00;99748.03;5048294;28;20033;-86
2021/04/27 10:33:03;;;;;;;4.57;2.17;;;;;;;17.95;27.66;99745.75;5056844;28;20041;-87
2021/04/27 10:35:31;;;;;;;4.82;2.35;;;;;;;18.01;27.68;99741.38;5063470;28;20082;-87
2021/04/27 10:38:04;;;;;;;3.58;2.38;;;;;;;17.83;25.77;99731.47;5064846;28;20063;-87
2021/04/27 10:40:46;;;;;;;3.47;2.15;;;;;;;17.86;28.09;99732.88;5058900;28;20044;-87
2021/04/27 10:43:24;;;;;;;3.75;2.50;;;;;;;17.77;28.90;99735.78;5042895;28;20033;-87
2021/04/27 10:45:51;;;;;;;4.05;2.45;;;;;;;17.89;28.90;99732.44;5059206;28;20047;-87
2021/04/27 10:48:29;;;;;;;5.05;2.97;;;;;;;17.96;27.15;99720.63;5059188;28;20068;-86
2021/04/27 10:50:55;;;;;;;3.15;2.25;;;;;;;18.17;27.55;99718.59;5040225;28;20086;-87
2021/04/27 10:53:37;;;;;;;4.45;2.63;;;;;;;17.98;29.21;99710.53;5061792;28;20111;-87
2021/04/27 10:56:05;;;;;;;4.57;2.38;;;;;;;18.06;26.46;99712.09;5041743;28;20034;-88
2021/04/27 10:58:47;;;;;;;4.43;2.30;;;;;;;18.00;25.40;99705.78;5044249;28;20040;-87
2021/04/27 11:01:36;;;;;;;3.45;2.40;;;;;;;17.98;25.14;99702.50;5062733;28;20096;-86
2021/04/27 11:04:23;;;;;;;4.95;2.75;;;;;;;18.24;22.73;99703.28;5048749;28;20392;-86
2021/04/27 11:07:09;;;;;;;3.88;2.13;;;;;;;18.17;22.49;99707.88;5058426;28;20128;-86
2021/04/27 11:09:34;;;;;;;3.05;2.08;;;;;;;18.41;22.26;99696.28;5073945;28;20044;-86
2021/04/27 11:12:36;;;;;;;4.35;2.33;;;;;;;18.71;21.02;99692.88;5059490;28;20568;-84
2021/04/27 11:15:07;;;;;;;5.15;2.30;;;;;;;18.62;20.74;99681.63;5048873;28;20040;-85
2021/04/27 11:17:55;;;;;;;4.57;2.40;;;;;;;18.83;20.42;99682.19;5044043;28;20041;-84
2021/04/27 11:20:49;;;;;;;4.50;2.55;;;;;;;18.29;20.72;99676.66;5041598;28;20059;-86
2021/04/27 11:23:37;;;;;;;3.95;2.33;;;;;;;18.02;20.60;99676.94;5059724;28;20532;-87
2021/04/27 11:26:34;;;;;;;4.65;2.60;;;;;;;18.22;20.43;99663.34;5047324;28;20049;-86
2021/04/27 11:29:06;;;;;;;3.70;2.53;;;;;;;18.17;20.04;99660.53;5019679;28;20487;-85
2021/04/27 11:31:51;;;;;;;4.20;2.50;;;;;;;18.42;21.06;99660.47;5067341;28;20068;-85
2021/04/27 11:34:16;;;;;;;3.97;2.17;;;;;;;18.33;21.40;99653.78;5053921;28;20103;-86
2021/04/27 11:36:42;;;;;;;4.88;2.03;;;;;;;18.40;21.32;99656.34;5039716;28;20072;-84
2021/04/27 11:39:16;;;;;;;2.80;2.10;;;;;;;18.55;21.45;99647.97;5043396;28;20037;-86
2021/04/27 11:41:51;;;;;;;3.08;2.03;;;;;;;18.61;20.79;99650.53;5043369;28;20041;-85
2021/04/27 11:44:19;;;;;;;5.25;2.40;;;;;;;18.81;20.12;99652.19;5025009;28;20029;-86